Hovedside
METAR-TAF:

METAR-TAF

Lufthavner :

Kuwait, Kuwait

breddegrad: 29-13N, lengdegrad: 047-59E, høyde over havet: 55 m

Gjeldene værobservasjon

Denne rapporten ble laget for 1 time og 34 minutter siden, klokken 17:00 UTC
Flau vind
Temperatur 26°C
Luftfuktighet 30%
Trykk 1013 hPa
Sikt 10 km eller mer
ingen skyer under 1500 m og ingen bygeskyer

METAR: OKBK 241700Z 00000KT CAVOK 26/07 Q1013 NOSIG

Tid: 21:34 (18:34 UTC)

Varsel

Denne rapporten ble laget for 1 time og 49 minutter siden, klokken 16:45 UTC
Varsel gyldig fra 24. klokken 18 UTC til 25. klokken 24 UTC
Vind 3 kt fra skiftende retning
Sikt: 6000 m
Spredte skyer i en høyde av 4000 ft
Blir
fra 25. klokken 03 UTC til 25. klokken 05 UTC
Vind 8 kt fra Nord-nordøst

TAF: OKBK 241645Z 2418/2524 VRB03KT 6000 SCT040 BECMG 2503/2505 02008KT

Værobservasjoner og værvarsel for over 4000 flyplasser (METAR- og TAF-rapporter).

Tilgjengelige stasjoner er representert av de røde og gule prikkene på kartet.

Hold musepekeren over prikken for å se navnet på stasjonen.

Klikk så for å se værobservasjoner og -varsler.

For å forandre kartet kan du klikke på den grønne knappen med svart kryss for å zoome inn, på den grønne knappen med strek for å zoome ut, eller på de grønne pilene for å se tilstøtende kart.


METAR-TAF: